createdAt,value
2022-09-04T00:00:58.166Z,1.70
2022-09-04T00:04:45.785Z,2.27
2022-09-04T00:08:42.436Z,2.00
2022-09-04T00:12:29.695Z,1.80
2022-09-04T00:16:15.689Z,2.50
2022-09-04T00:20:02.815Z,1.67
2022-09-04T00:23:51.987Z,2.10
2022-09-04T00:27:43.516Z,1.23
2022-09-04T00:31:29.315Z,1.47
2022-09-04T00:35:15.524Z,2.30
2022-09-04T00:39:06.534Z,1.93
2022-09-04T00:43:08.990Z,2.10
2022-09-04T00:47:07.298Z,1.87
2022-09-04T00:51:15.124Z,1.80
2022-09-04T00:55:10.769Z,1.40
2022-09-04T00:59:05.455Z,2.10
2022-09-04T01:03:02.244Z,1.87
2022-09-04T01:06:51.188Z,1.87
2022-09-04T01:10:42.492Z,4.43
2022-09-04T01:14:34.398Z,2.30
2022-09-04T01:18:25.602Z,2.10
2022-09-04T01:22:17.650Z,1.40
2022-09-04T01:26:08.860Z,1.47
2022-09-04T01:30:00.130Z,2.30
2022-09-04T01:33:47.569Z,1.63
2022-09-04T01:37:42.003Z,1.27
2022-09-04T01:41:29.367Z,1.50
2022-09-04T01:45:12.315Z,1.27
2022-09-04T01:49:05.496Z,1.10
2022-09-04T01:52:56.631Z,2.10
2022-09-04T01:56:45.483Z,2.33
2022-09-04T02:00:31.072Z,1.70
2022-09-04T02:04:24.142Z,1.57
2022-09-04T02:08:18.628Z,1.70
2022-09-04T02:12:10.031Z,1.37
2022-09-04T02:16:01.534Z,1.87
2022-09-04T02:19:58.951Z,1.33
2022-09-04T02:23:46.809Z,2.40
2022-09-04T02:27:36.599Z,1.63
2022-09-04T02:31:27.238Z,1.50
2022-09-04T02:35:16.729Z,4.67
2022-09-04T02:39:05.025Z,3.57
2022-09-04T02:42:59.699Z,2.00
2022-09-04T02:46:51.854Z,1.83
2022-09-04T02:50:46.178Z,1.70
2022-09-04T02:54:40.415Z,3.47
2022-09-04T02:58:33.689Z,3.10
2022-09-04T03:02:23.001Z,2.23
2022-09-04T03:06:10.091Z,3.40
2022-09-04T03:09:55.656Z,3.27
2022-09-04T03:13:43.024Z,1.50
2022-09-04T03:17:31.018Z,3.93
2022-09-04T03:21:19.280Z,1.30
2022-09-04T03:25:13.206Z,1.30
2022-09-04T03:29:03.326Z,1.57
2022-09-04T03:32:52.363Z,4.00
2022-09-04T03:36:41.263Z,1.63
2022-09-04T03:40:35.161Z,2.07
2022-09-04T03:44:25.125Z,1.43
2022-09-04T03:48:21.228Z,2.33
2022-09-04T03:52:08.040Z,1.80
2022-09-04T03:56:06.908Z,2.70
2022-09-04T04:00:04.742Z,1.90
2022-09-04T04:04:09.157Z,2.00
2022-09-04T04:08:00.825Z,1.40
2022-09-04T04:12:13.411Z,1.53
2022-09-04T04:16:06.777Z,2.50
2022-09-04T04:20:03.309Z,2.47
2022-09-04T04:24:15.399Z,1.67
2022-09-04T04:28:17.145Z,3.03
2022-09-04T04:32:21.031Z,2.17
2022-09-04T04:36:10.074Z,3.17
2022-09-04T04:39:58.197Z,2.90
2022-09-04T04:43:57.587Z,1.60
2022-09-04T04:48:00.151Z,1.93
2022-09-04T04:51:52.610Z,2.70
2022-09-04T04:55:40.407Z,3.27
2022-09-04T04:59:27.066Z,2.80
2022-09-04T05:03:20.229Z,2.00
2022-09-04T05:07:08.549Z,2.00
2022-09-04T05:10:54.895Z,1.57
2022-09-04T05:14:45.856Z,1.60
2022-09-04T05:18:33.270Z,1.53
2022-09-04T05:22:21.389Z,2.43
2022-09-04T05:26:12.738Z,5.43
2022-09-04T05:30:01.547Z,2.60
2022-09-04T05:33:57.254Z,3.27
2022-09-04T05:37:45.043Z,2.23
2022-09-04T05:41:37.862Z,3.17
2022-09-04T05:45:25.417Z,5.93
2022-09-04T05:49:17.701Z,2.03
2022-09-04T05:53:42.016Z,2.17
2022-09-04T05:57:35.795Z,1.63
2022-09-04T06:01:38.917Z,2.13
2022-09-04T06:05:30.997Z,9.87
2022-09-04T06:09:29.602Z,1.90
2022-09-04T06:13:32.760Z,2.93
2022-09-04T06:17:29.826Z,2.47
2022-09-04T06:21:51.974Z,2.40
2022-09-04T06:26:01.534Z,3.97
2022-09-04T06:29:53.294Z,2.17
2022-09-04T06:33:47.115Z,2.33
2022-09-04T06:37:38.322Z,1.90
2022-09-04T06:41:35.597Z,2.43
2022-09-04T06:45:26.853Z,2.10
2022-09-04T06:49:13.299Z,1.50
2022-09-04T06:53:06.232Z,2.43
2022-09-04T06:57:24.862Z,3.43
2022-09-04T07:01:11.823Z,1.90
2022-09-04T07:05:04.099Z,2.33
2022-09-04T07:09:01.174Z,2.03
2022-09-04T07:13:13.173Z,3.83
2022-09-04T07:17:05.087Z,2.93
2022-09-04T07:20:55.637Z,1.90
2022-09-04T07:24:53.503Z,1.97
2022-09-04T07:28:47.263Z,2.27
2022-09-04T07:32:35.730Z,2.53
2022-09-04T07:36:25.306Z,2.13
2022-09-04T07:40:16.095Z,3.67
2022-09-04T07:44:04.539Z,2.20
2022-09-04T07:47:55.085Z,1.77
2022-09-04T07:51:44.329Z,1.80
2022-09-04T07:55:37.493Z,2.03
2022-09-04T07:59:36.861Z,1.67
2022-09-04T08:03:31.600Z,2.20
2022-09-04T08:07:20.878Z,2.60
2022-09-04T08:11:18.039Z,2.00
2022-09-04T08:15:10.836Z,3.83
2022-09-04T08:19:06.978Z,2.17
2022-09-04T08:23:05.587Z,4.90
2022-09-04T08:26:59.798Z,3.10
2022-09-04T08:30:50.546Z,2.93
2022-09-04T08:34:54.705Z,3.13
2022-09-04T08:38:56.598Z,2.23
2022-09-04T08:43:06.652Z,4.70
2022-09-04T08:47:24.184Z,2.37
2022-09-04T08:51:34.534Z,2.40
2022-09-04T08:55:34.720Z,3.17
2022-09-04T08:59:42.673Z,3.87
2022-09-04T09:03:51.675Z,2.00
2022-09-04T09:07:51.377Z,2.30
2022-09-04T09:11:50.041Z,2.53
2022-09-04T09:15:57.809Z,2.57
2022-09-04T09:19:55.635Z,2.10
2022-09-04T09:24:09.924Z,2.45
2022-09-04T09:28:34.217Z,2.80
2022-09-04T09:32:46.912Z,2.90
2022-09-04T09:37:02.834Z,2.80
2022-09-04T09:41:06.396Z,3.20
2022-09-04T09:45:06.224Z,2.73
2022-09-04T09:49:16.887Z,2.43
2022-09-04T09:53:29.709Z,3.15
2022-09-04T09:57:47.951Z,2.75
2022-09-04T10:01:50.026Z,2.00
2022-09-04T10:05:46.040Z,3.20
2022-09-04T10:09:49.906Z,2.95
2022-09-04T10:14:24.431Z,1.83
2022-09-04T10:18:43.906Z,1.88
2022-09-04T10:23:04.092Z,4.05
2022-09-04T10:27:19.889Z,1.98
2022-09-04T10:31:47.302Z,2.85
2022-09-04T10:35:34.321Z,2.28
2022-09-04T10:39:42.947Z,2.88
2022-09-04T10:43:47.069Z,2.80
2022-09-04T10:47:45.525Z,2.97
2022-09-04T10:52:10.645Z,2.53
2022-09-04T10:56:16.719Z,1.80
2022-09-04T11:00:09.310Z,2.63
2022-09-04T11:04:13.892Z,3.47
2022-09-04T11:08:26.199Z,1.27
2022-09-04T11:12:35.369Z,1.85
2022-09-04T11:16:57.835Z,2.63
2022-09-04T11:21:25.635Z,2.38
2022-09-04T11:25:47.185Z,4.28
2022-09-04T11:29:41.265Z,3.95
2022-09-04T11:34:10.123Z,2.58
2022-09-04T11:38:20.967Z,4.72
2022-09-04T11:42:28.964Z,3.45
2022-09-04T11:46:36.465Z,3.00
2022-09-04T11:50:38.656Z,2.28
2022-09-04T11:54:51.889Z,1.55
2022-09-04T11:59:16.577Z,1.42
2022-09-04T12:03:30.977Z,2.45
2022-09-04T12:07:28.294Z,1.48
2022-09-04T12:11:38.877Z,1.77
2022-09-04T12:15:54.635Z,2.35
2022-09-04T12:20:24.096Z,1.48
2022-09-04T12:24:23.174Z,1.63
2022-09-04T12:28:27.709Z,1.58
2022-09-04T12:32:27.716Z,2.00
2022-09-04T12:36:43.254Z,1.77
2022-09-04T12:40:34.516Z,1.40
2022-09-04T12:44:26.714Z,1.75
2022-09-04T12:48:14.964Z,1.65
2022-09-04T12:52:05.609Z,3.05
2022-09-04T12:56:03.092Z,2.08
2022-09-04T12:59:57.471Z,4.25
2022-09-04T13:03:47.300Z,1.67
2022-09-04T13:07:41.002Z,2.38
2022-09-04T13:11:37.256Z,1.90
2022-09-04T13:15:28.327Z,6.35
2022-09-04T13:19:17.327Z,1.45
2022-09-04T13:23:12.556Z,2.10
2022-09-04T13:27:15.848Z,2.25
2022-09-04T13:31:05.541Z,2.55
2022-09-04T13:35:03.907Z,2.80
2022-09-04T13:39:16.429Z,1.75
2022-09-04T13:43:34.327Z,3.20
2022-09-04T13:47:22.929Z,2.72
2022-09-04T13:51:18.955Z,2.85
2022-09-04T13:55:04.223Z,1.42
2022-09-04T13:58:51.471Z,5.10
2022-09-04T14:02:39.073Z,2.40
2022-09-04T14:06:23.339Z,2.63
2022-09-04T14:10:11.723Z,1.48
2022-09-04T14:14:30.923Z,2.65
2022-09-04T14:18:25.195Z,2.33
2022-09-04T14:22:16.651Z,3.72
2022-09-04T14:26:04.890Z,2.30
2022-09-04T14:30:03.469Z,2.92
2022-09-04T14:33:53.529Z,1.92
2022-09-04T14:38:00.343Z,4.63
2022-09-04T14:42:02.365Z,3.65
2022-09-04T14:46:07.044Z,5.20
2022-09-04T14:49:53.495Z,3.83
2022-09-04T14:53:36.398Z,1.50
2022-09-04T14:57:23.867Z,1.38
2022-09-04T15:01:10.155Z,2.15
2022-09-04T15:05:01.220Z,3.00
2022-09-04T15:08:45.161Z,1.60
2022-09-04T15:12:30.468Z,1.92
2022-09-04T15:16:28.954Z,1.48
2022-09-04T15:20:17.009Z,2.65
2022-09-04T15:24:07.702Z,2.65
2022-09-04T15:27:54.591Z,1.65
2022-09-04T15:31:38.793Z,4.40
2022-09-04T15:35:32.848Z,2.25
2022-09-04T15:39:29.189Z,1.33
2022-09-04T15:43:18.500Z,1.52
2022-09-04T15:47:06.840Z,1.80
2022-09-04T15:51:01.280Z,1.98
2022-09-04T15:55:03.962Z,1.23
2022-09-04T15:58:53.297Z,3.20
2022-09-04T16:02:42.935Z,2.95
2022-09-04T16:06:32.279Z,2.50
2022-09-04T16:10:18.046Z,2.13
2022-09-04T16:14:02.449Z,6.05
2022-09-04T16:17:47.050Z,10.05
2022-09-04T16:21:40.542Z,1.88
2022-09-04T16:25:28.974Z,4.13
2022-09-04T16:29:26.803Z,3.88
2022-09-04T16:33:27.377Z,6.03
2022-09-04T16:37:15.114Z,1.67
2022-09-04T16:41:01.582Z,6.63
2022-09-04T16:44:46.443Z,1.90
2022-09-04T16:48:34.922Z,2.70
2022-09-04T16:52:34.451Z,3.22
2022-09-04T16:56:26.266Z,4.55
2022-09-04T17:00:11.527Z,7.85
2022-09-04T17:04:13.778Z,3.03
2022-09-04T17:08:03.098Z,2.30
2022-09-04T17:11:55.766Z,3.70
2022-09-04T17:15:53.899Z,5.95
2022-09-04T17:19:40.090Z,6.70
2022-09-04T17:29:00.827Z,6.10
2022-09-04T17:29:14.871Z,7.68
2022-09-04T17:31:51.039Z,5.53
2022-09-04T17:40:42.242Z,5.35
2022-09-04T17:40:49.127Z,4.05
2022-09-04T17:44:10.241Z,9.40
2022-09-04T17:48:02.201Z,9.93
2022-09-04T17:51:51.636Z,9.15
2022-09-04T17:55:49.452Z,6.90
2022-09-04T17:59:38.975Z,7.00
2022-09-04T18:03:29.701Z,6.75
2022-09-04T18:07:21.900Z,3.10
2022-09-04T18:11:24.019Z,4.22
2022-09-04T18:15:12.990Z,5.55
2022-09-04T18:19:18.495Z,4.68
2022-09-04T18:23:14.437Z,7.15
2022-09-04T18:27:03.947Z,6.28
2022-09-04T18:37:07.651Z,4.45
2022-09-04T18:37:24.548Z,2.95
2022-09-04T18:39:09.221Z,3.53
2022-09-04T18:50:30.863Z,5.35
2022-09-04T18:50:40.488Z,5.13
2022-09-04T18:51:31.355Z,11.48
2022-09-04T18:55:18.232Z,7.43
2022-09-04T18:59:07.766Z,18.13
2022-09-04T19:02:54.416Z,15.40
2022-09-04T19:06:39.117Z,19.08
2022-09-04T19:10:25.615Z,16.67
2022-09-04T19:14:15.336Z,10.10
2022-09-04T19:18:01.207Z,6.82
2022-09-04T19:21:57.846Z,6.78
2022-09-04T19:25:44.381Z,8.07
2022-09-04T19:29:35.731Z,7.70
2022-09-04T19:33:31.778Z,7.28
2022-09-04T19:39:37.081Z,7.53
2022-09-04T19:45:55.021Z,5.18
2022-09-04T19:46:16.448Z,7.68
2022-09-04T19:53:19.281Z,9.68
2022-09-04T19:53:57.655Z,11.38
2022-09-04T19:57:44.028Z,11.60
2022-09-04T20:01:33.608Z,11.48
2022-09-04T20:05:21.546Z,9.38
2022-09-04T20:09:11.788Z,10.50
2022-09-04T20:13:01.888Z,7.35
2022-09-04T20:16:53.610Z,8.27
2022-09-04T20:20:46.076Z,6.15
2022-09-04T20:24:36.078Z,7.30
2022-09-04T20:28:24.577Z,5.18
2022-09-04T20:32:13.215Z,6.13
2022-09-04T20:36:03.874Z,5.15
2022-09-04T20:39:49.738Z,6.30
2022-09-04T20:43:49.635Z,5.50
2022-09-04T20:52:44.598Z,8.35
2022-09-04T20:52:48.975Z,6.07
2022-09-04T20:56:01.900Z,7.40
2022-09-04T21:03:13.906Z,4.45
2022-09-04T21:04:09.033Z,7.18
2022-09-04T21:07:57.757Z,6.07
2022-09-04T21:11:43.438Z,7.30
2022-09-04T21:15:34.704Z,7.43
2022-09-04T21:19:40.603Z,6.38
2022-09-04T21:23:56.526Z,7.18
2022-09-04T21:28:28.309Z,6.80
2022-09-04T21:32:36.306Z,7.17
2022-09-04T21:36:27.672Z,5.00
2022-09-04T21:40:51.582Z,6.68
2022-09-04T21:44:46.829Z,6.63
2022-09-04T21:48:48.669Z,6.20
2022-09-04T21:52:55.745Z,5.13
2022-09-04T22:02:31.479Z,5.22
2022-09-04T22:02:43.462Z,6.13
2022-09-04T22:05:25.222Z,5.68
2022-09-04T22:13:27.236Z,5.28
2022-09-04T22:13:47.857Z,5.45
2022-09-04T22:17:50.800Z,4.45
2022-09-04T22:21:47.903Z,6.00
2022-09-04T22:25:46.107Z,5.93
2022-09-04T22:29:48.818Z,4.75
2022-09-04T22:34:14.360Z,4.82
2022-09-04T22:38:30.378Z,6.43
2022-09-04T22:42:42.553Z,6.85
2022-09-04T22:46:39.647Z,5.05
2022-09-04T22:50:51.480Z,5.60
2022-09-04T22:54:48.476Z,4.67
2022-09-04T22:58:48.330Z,5.68
2022-09-04T23:03:09.573Z,4.72
2022-09-04T23:11:42.099Z,5.70
2022-09-04T23:14:00.478Z,6.85
2022-09-04T23:15:37.271Z,6.22
2022-09-04T23:26:39.155Z,6.75
2022-09-04T23:26:46.818Z,11.55
2022-09-04T23:28:27.568Z,6.53
2022-09-04T23:32:26.379Z,5.13
2022-09-04T23:36:33.415Z,5.27
2022-09-04T23:40:31.211Z,3.73
2022-09-04T23:44:34.477Z,4.43
2022-09-04T23:48:30.826Z,4.40
2022-09-04T23:52:22.954Z,6.10
2022-09-04T23:56:26.246Z,4.43
